createdAt,value
2022-10-14T00:00:23.974Z,57.70
2022-10-14T00:02:05.384Z,57.70
2022-10-14T00:03:19.580Z,57.70
2022-10-14T00:04:39.141Z,57.70
2022-10-14T00:05:53.408Z,57.80
2022-10-14T00:07:10.584Z,57.70
2022-10-14T00:08:39.664Z,57.70
2022-10-14T00:10:15.904Z,57.70
2022-10-14T00:11:41.565Z,57.80
2022-10-14T00:12:56.436Z,57.70
2022-10-14T00:14:25.412Z,57.70
2022-10-14T00:15:48.344Z,57.80
2022-10-14T00:17:20.157Z,57.80
2022-10-14T00:18:35.118Z,57.80
2022-10-14T00:19:48.561Z,57.80
2022-10-14T00:21:15.232Z,57.80
2022-10-14T00:22:33.877Z,57.80
2022-10-14T00:24:01.978Z,57.80
2022-10-14T00:25:15.939Z,57.80
2022-10-14T00:26:36.710Z,57.80
2022-10-14T00:27:54.043Z,57.80
2022-10-14T00:29:14.179Z,57.80
2022-10-14T00:30:29.687Z,57.80
2022-10-14T00:32:05.778Z,57.80
2022-10-14T00:33:21.478Z,57.80
2022-10-14T00:34:37.889Z,58.40
2022-10-14T00:35:54.871Z,57.80
2022-10-14T00:37:09.299Z,57.80
2022-10-14T00:38:22.657Z,57.80
2022-10-14T00:39:42.928Z,57.90
2022-10-14T00:40:58.030Z,58.00
2022-10-14T00:42:17.051Z,57.90
2022-10-14T00:44:12.213Z,57.90
2022-10-14T00:45:28.903Z,57.90
2022-10-14T00:46:49.106Z,57.90
2022-10-14T00:48:02.909Z,57.80
2022-10-14T00:49:28.912Z,57.90
2022-10-14T00:50:55.218Z,57.80
2022-10-14T00:52:50.162Z,57.80
2022-10-14T00:54:14.864Z,57.90
2022-10-14T00:55:33.934Z,57.90
2022-10-14T00:56:51.668Z,57.90
2022-10-14T00:58:12.826Z,57.90
2022-10-14T01:00:43.825Z,58.00
2022-10-14T01:02:02.827Z,57.90
2022-10-14T01:03:23.534Z,57.90
2022-10-14T01:04:44.845Z,57.90
2022-10-14T01:06:09.119Z,57.90
2022-10-14T01:08:09.233Z,57.90
2022-10-14T01:09:38.895Z,57.90
2022-10-14T01:21:48.791Z,57.90
2022-10-14T01:24:06.759Z,58.00
2022-10-14T01:25:35.118Z,58.00
2022-10-14T01:27:07.737Z,57.90
2022-10-14T01:28:57.888Z,57.90
2022-10-14T01:30:45.875Z,57.90
2022-10-14T01:32:10.395Z,58.00
2022-10-14T01:33:37.903Z,58.00
2022-10-14T01:35:23.532Z,58.00
2022-10-14T01:37:10.289Z,58.00
2022-10-14T01:38:40.703Z,58.00
2022-10-14T01:40:03.784Z,58.00
2022-10-14T01:41:32.219Z,58.00
2022-10-14T01:42:47.598Z,58.00
2022-10-14T01:44:08.058Z,58.00
2022-10-14T01:45:42.471Z,58.10
2022-10-14T01:47:24.594Z,58.10
2022-10-14T01:48:51.887Z,58.10
2022-10-14T01:50:26.434Z,58.10
2022-10-14T01:51:50.598Z,58.10
2022-10-14T01:53:11.087Z,58.10
2022-10-14T01:54:43.208Z,58.10
2022-10-14T01:56:02.586Z,58.10
2022-10-14T01:57:22.579Z,58.10
2022-10-14T01:58:53.730Z,58.10
2022-10-14T02:00:09.100Z,58.10
2022-10-14T02:01:31.926Z,58.10
2022-10-14T02:02:50.098Z,58.10
2022-10-14T02:04:05.275Z,58.10
2022-10-14T02:05:27.762Z,58.10
2022-10-14T02:07:22.788Z,58.10
2022-10-14T02:09:00.975Z,58.10
2022-10-14T02:10:43.684Z,58.10
2022-10-14T02:12:26.862Z,58.10
2022-10-14T02:14:19.627Z,58.10
2022-10-14T02:15:43.983Z,58.10
2022-10-14T02:17:10.155Z,58.20
2022-10-14T02:18:41.322Z,58.10
2022-10-14T02:20:07.836Z,58.10
2022-10-14T02:21:41.742Z,58.10
2022-10-14T02:23:16.871Z,58.10
2022-10-14T02:24:37.752Z,58.10
2022-10-14T02:26:01.644Z,58.10
2022-10-14T02:27:36.626Z,58.10
2022-10-14T02:28:59.630Z,58.10
2022-10-14T02:30:14.645Z,58.10
2022-10-14T02:31:46.327Z,58.10
2022-10-14T02:33:12.778Z,58.10
2022-10-14T02:34:32.435Z,58.10
2022-10-14T02:36:03.437Z,58.10
2022-10-14T02:37:22.930Z,58.10
2022-10-14T02:38:48.413Z,58.10
2022-10-14T02:40:29.887Z,58.10
2022-10-14T02:41:46.027Z,58.10
2022-10-14T02:43:02.517Z,58.10
2022-10-14T02:44:16.140Z,58.20
2022-10-14T02:45:36.853Z,58.10
2022-10-14T02:46:51.099Z,58.10
2022-10-14T02:48:07.903Z,58.10
2022-10-14T02:49:24.385Z,58.10
2022-10-14T02:50:38.993Z,58.20
2022-10-14T02:51:54.134Z,58.10
2022-10-14T02:53:17.107Z,58.10
2022-10-14T02:54:42.042Z,58.10
2022-10-14T02:56:00.080Z,58.10
2022-10-14T02:57:26.971Z,58.10
2022-10-14T02:58:46.392Z,58.10
2022-10-14T03:01:05.812Z,58.10
2022-10-14T03:02:26.549Z,58.10
2022-10-14T03:04:00.116Z,58.10
2022-10-14T03:05:47.295Z,58.10
2022-10-14T03:07:05.702Z,58.10
2022-10-14T03:08:22.767Z,58.10
2022-10-14T03:09:36.149Z,58.10
2022-10-14T03:10:50.824Z,58.10
2022-10-14T03:12:14.929Z,58.10
2022-10-14T03:13:40.150Z,58.10
2022-10-14T03:14:53.911Z,58.10
2022-10-14T03:16:18.122Z,58.10
2022-10-14T03:17:33.150Z,58.10
2022-10-14T03:18:53.060Z,58.10
2022-10-14T03:20:16.688Z,58.10
2022-10-14T03:21:41.570Z,58.20
2022-10-14T03:23:06.635Z,58.10
2022-10-14T03:24:33.264Z,58.10
2022-10-14T03:38:19.131Z,58.10
2022-10-14T03:39:36.271Z,58.10
2022-10-14T03:40:52.765Z,58.10
2022-10-14T03:42:13.498Z,58.10
2022-10-14T03:43:45.711Z,58.20
2022-10-14T03:45:10.014Z,58.20
2022-10-14T03:46:42.474Z,58.10
2022-10-14T03:47:56.961Z,58.20
2022-10-14T03:49:25.071Z,58.20
2022-10-14T03:50:51.279Z,58.10
2022-10-14T03:52:06.575Z,58.20
2022-10-14T03:53:21.513Z,58.20
2022-10-14T03:54:39.897Z,58.10
2022-10-14T03:55:57.763Z,58.70
2022-10-14T03:57:14.645Z,58.20
2022-10-14T03:58:56.409Z,58.20
2022-10-14T04:00:51.562Z,58.20
2022-10-14T04:02:26.602Z,58.20
2022-10-14T04:04:11.583Z,58.10
2022-10-14T04:06:11.319Z,58.10
2022-10-14T04:07:30.711Z,58.20
2022-10-14T04:08:45.883Z,58.10
2022-10-14T04:10:11.108Z,58.10
2022-10-14T04:11:42.038Z,58.10
2022-10-14T04:13:26.441Z,58.20
2022-10-14T04:14:42.848Z,58.10
2022-10-14T04:16:40.132Z,58.10
2022-10-14T04:18:00.107Z,58.20
2022-10-14T04:19:26.686Z,58.20
2022-10-14T04:20:45.360Z,58.20
2022-10-14T04:22:06.496Z,58.10
2022-10-14T04:24:23.822Z,58.10
2022-10-14T04:25:55.582Z,58.20
2022-10-14T04:27:16.103Z,58.10
2022-10-14T04:28:42.401Z,58.10
2022-10-14T04:30:04.726Z,58.10
2022-10-14T04:31:28.276Z,58.10
2022-10-14T04:32:52.112Z,58.20
2022-10-14T04:35:06.396Z,58.10
2022-10-14T04:36:27.792Z,58.10
2022-10-14T04:37:47.032Z,58.10
2022-10-14T04:40:13.184Z,58.10
2022-10-14T04:42:50.418Z,58.10
2022-10-14T04:45:09.195Z,58.10
2022-10-14T04:46:36.238Z,58.10
2022-10-14T04:48:36.689Z,58.10
2022-10-14T04:49:50.851Z,58.10
2022-10-14T04:51:08.391Z,58.10
2022-10-14T04:53:03.454Z,58.10
2022-10-14T04:57:10.336Z,58.10
2022-10-14T04:58:47.600Z,58.10
2022-10-14T05:00:12.103Z,58.10
2022-10-14T05:02:25.177Z,58.10
2022-10-14T05:03:45.451Z,58.10
2022-10-14T05:05:31.705Z,58.10
2022-10-14T05:08:20.504Z,58.10
2022-10-14T05:09:39.087Z,58.10
2022-10-14T05:11:17.022Z,58.10
2022-10-14T05:12:53.303Z,58.10
2022-10-14T05:14:16.803Z,58.10
2022-10-14T05:15:54.932Z,58.10
2022-10-14T05:17:40.378Z,58.10
2022-10-14T05:18:55.951Z,58.10
2022-10-14T05:20:13.954Z,58.10
2022-10-14T05:21:31.141Z,58.10
2022-10-14T05:23:28.188Z,58.10
2022-10-14T05:25:13.747Z,58.10
2022-10-14T05:26:47.618Z,58.00
2022-10-14T05:28:05.144Z,58.10
2022-10-14T05:29:21.510Z,58.10
2022-10-14T05:30:39.722Z,58.00
2022-10-14T05:31:57.939Z,58.00
2022-10-14T05:33:33.651Z,58.10
2022-10-14T05:34:51.941Z,58.00
2022-10-14T05:36:41.225Z,58.00
2022-10-14T05:38:03.267Z,58.00
2022-10-14T05:39:26.808Z,58.00
2022-10-14T05:41:00.640Z,58.10
2022-10-14T05:42:20.057Z,58.00
2022-10-14T05:43:50.909Z,58.10
2022-10-14T05:45:26.780Z,58.00
2022-10-14T05:48:12.327Z,58.00
2022-10-14T05:49:26.778Z,58.00
2022-10-14T05:50:44.731Z,58.00
2022-10-14T05:53:15.995Z,58.00
2022-10-14T05:54:37.664Z,58.00
2022-10-14T05:55:54.655Z,58.00
2022-10-14T05:57:09.570Z,58.00
2022-10-14T05:58:23.749Z,58.00
2022-10-14T05:59:40.015Z,58.00
2022-10-14T06:01:10.303Z,57.90
2022-10-14T06:02:42.173Z,58.00
2022-10-14T06:04:03.103Z,58.00
2022-10-14T06:05:40.025Z,58.00
2022-10-14T06:07:06.045Z,57.90
2022-10-14T06:09:02.396Z,58.00
2022-10-14T06:11:11.658Z,57.90
2022-10-14T06:23:04.587Z,57.90
2022-10-14T06:24:18.609Z,57.90
2022-10-14T06:25:32.064Z,57.90
2022-10-14T06:26:49.578Z,57.90
2022-10-14T06:28:06.562Z,57.90
2022-10-14T06:29:39.259Z,57.90
2022-10-14T06:30:54.910Z,58.40
2022-10-14T06:32:12.031Z,57.90
2022-10-14T06:33:44.124Z,57.80
2022-10-14T06:34:58.551Z,57.90
2022-10-14T06:36:16.379Z,57.90
2022-10-14T06:37:32.446Z,57.80
2022-10-14T06:38:50.895Z,57.90
2022-10-14T06:40:08.381Z,57.80
2022-10-14T06:41:27.066Z,57.80
2022-10-14T06:42:44.716Z,57.90
2022-10-14T06:43:58.460Z,57.90
2022-10-14T06:45:15.314Z,58.40
2022-10-14T06:46:31.833Z,57.80
2022-10-14T06:47:48.614Z,58.00
2022-10-14T06:49:06.648Z,57.90
2022-10-14T06:50:28.538Z,57.80
2022-10-14T06:51:56.171Z,57.80
2022-10-14T06:53:46.754Z,57.80
2022-10-14T06:55:16.478Z,57.80
2022-10-14T06:57:04.673Z,57.80
2022-10-14T06:58:23.346Z,57.80
2022-10-14T07:00:02.560Z,57.80
2022-10-14T07:01:21.607Z,57.80
2022-10-14T07:02:40.079Z,57.80
2022-10-14T07:03:56.982Z,57.80
2022-10-14T07:05:13.649Z,57.80
2022-10-14T07:06:32.175Z,57.80
2022-10-14T07:07:48.002Z,57.80
2022-10-14T07:09:07.302Z,57.80
2022-10-14T07:13:37.435Z,57.80
2022-10-14T07:15:19.515Z,57.80
2022-10-14T07:16:33.918Z,57.70
2022-10-14T07:18:08.006Z,57.80
2022-10-14T07:19:21.551Z,57.70
2022-10-14T07:20:57.540Z,57.80
2022-10-14T07:22:56.827Z,57.80
2022-10-14T07:24:12.559Z,57.70
2022-10-14T07:25:38.486Z,57.80
2022-10-14T07:26:53.425Z,57.70
2022-10-14T07:28:28.127Z,57.70
2022-10-14T07:30:01.578Z,57.70
2022-10-14T07:31:30.371Z,57.80
2022-10-14T07:32:49.401Z,57.80
2022-10-14T07:34:04.038Z,57.70
2022-10-14T07:35:21.594Z,57.80
2022-10-14T07:36:37.404Z,57.70
2022-10-14T07:38:06.949Z,57.80
2022-10-14T07:39:20.648Z,57.70
2022-10-14T07:40:36.060Z,57.70
2022-10-14T07:41:48.551Z,57.70
2022-10-14T07:43:17.725Z,57.70
2022-10-14T07:44:54.407Z,57.70
2022-10-14T07:46:21.457Z,57.70
2022-10-14T07:48:09.897Z,57.70
2022-10-14T07:49:46.010Z,57.70
2022-10-14T07:51:04.855Z,57.70
2022-10-14T07:52:19.721Z,57.70
2022-10-14T07:53:32.830Z,57.70
2022-10-14T07:54:51.271Z,57.70
2022-10-14T07:56:09.532Z,57.80
2022-10-14T07:57:32.212Z,57.80
2022-10-14T07:59:02.870Z,57.70
2022-10-14T08:00:28.435Z,57.70
2022-10-14T08:01:45.508Z,57.70
2022-10-14T08:03:04.664Z,57.70
2022-10-14T08:04:24.395Z,57.70
2022-10-14T08:05:39.293Z,57.70
2022-10-14T08:09:04.932Z,57.80
2022-10-14T08:10:21.991Z,57.70
2022-10-14T08:12:03.278Z,57.80
2022-10-14T08:13:26.909Z,57.70
2022-10-14T08:14:46.558Z,57.70
2022-10-14T08:15:59.316Z,57.70
2022-10-14T08:17:27.637Z,57.80
2022-10-14T08:18:55.152Z,57.80
2022-10-14T08:20:44.412Z,57.80
2022-10-14T08:22:31.297Z,57.80
2022-10-14T08:23:45.052Z,57.80
2022-10-14T08:25:02.842Z,57.80
2022-10-14T08:26:33.442Z,57.80
2022-10-14T08:27:54.047Z,57.80
2022-10-14T08:29:12.151Z,57.80
2022-10-14T08:30:26.613Z,57.70
2022-10-14T08:31:44.011Z,57.80
2022-10-14T08:33:00.068Z,57.80
2022-10-14T08:34:16.633Z,57.80
2022-10-14T08:35:30.223Z,57.80
2022-10-14T08:36:47.391Z,57.80
2022-10-14T08:38:13.734Z,57.80
2022-10-14T08:39:26.783Z,57.80
2022-10-14T08:41:04.850Z,57.80
2022-10-14T08:42:54.453Z,57.80
2022-10-14T08:44:28.622Z,57.80
2022-10-14T08:45:53.395Z,57.80
2022-10-14T08:48:11.267Z,57.80
2022-10-14T08:50:27.165Z,57.90
2022-10-14T08:53:15.253Z,57.80
2022-10-14T08:54:31.905Z,57.80
2022-10-14T08:55:55.071Z,57.90
2022-10-14T08:57:20.107Z,57.80
2022-10-14T08:58:44.667Z,57.90
2022-10-14T09:01:03.281Z,57.80
2022-10-14T09:02:45.139Z,57.90
2022-10-14T09:04:02.970Z,57.90
2022-10-14T09:05:26.493Z,57.90
2022-10-14T09:06:51.631Z,57.90
2022-10-14T09:08:18.158Z,57.90
2022-10-14T09:09:46.353Z,57.90
2022-10-14T09:11:02.802Z,57.90
2022-10-14T09:12:21.725Z,57.90
2022-10-14T09:13:39.532Z,57.90
2022-10-14T09:15:20.292Z,57.90
2022-10-14T09:16:50.366Z,57.90
2022-10-14T09:18:12.724Z,57.90
2022-10-14T09:20:00.490Z,57.90
2022-10-14T09:21:53.458Z,57.90
2022-10-14T09:23:22.780Z,57.90
2022-10-14T09:24:36.891Z,57.90
2022-10-14T09:26:58.520Z,57.90
2022-10-14T09:28:54.604Z,57.90
2022-10-14T09:30:41.622Z,58.00
2022-10-14T09:32:29.558Z,58.00
2022-10-14T09:33:46.707Z,58.10
2022-10-14T09:35:02.528Z,57.90
2022-10-14T09:36:22.103Z,58.00
2022-10-14T09:37:50.434Z,58.00
2022-10-14T09:39:11.178Z,58.00
2022-10-14T09:40:44.105Z,58.00
2022-10-14T09:42:14.419Z,58.00
2022-10-14T09:44:29.060Z,58.00
2022-10-14T09:46:09.871Z,58.00
2022-10-14T09:47:30.928Z,58.00
2022-10-14T09:48:53.826Z,58.10
2022-10-14T09:50:46.675Z,58.00
2022-10-14T09:52:06.858Z,58.10
2022-10-14T09:53:47.311Z,58.10
2022-10-14T09:55:23.990Z,58.10
2022-10-14T09:56:43.860Z,58.10
2022-10-14T09:58:14.149Z,58.40
2022-10-14T10:02:16.575Z,58.10
2022-10-14T10:03:38.617Z,58.10
2022-10-14T10:05:19.898Z,58.10
2022-10-14T10:07:43.593Z,58.20
2022-10-14T10:09:01.374Z,58.20
2022-10-14T10:10:23.692Z,58.20
2022-10-14T10:11:40.087Z,58.20
2022-10-14T10:12:54.205Z,58.20
2022-10-14T10:14:33.268Z,58.20
2022-10-14T10:16:02.630Z,58.30
2022-10-14T10:18:39.441Z,58.20
2022-10-14T10:20:31.931Z,58.30
2022-10-14T10:21:51.963Z,58.30
2022-10-14T10:23:39.541Z,58.30
2022-10-14T10:25:04.378Z,58.30
2022-10-14T10:26:25.763Z,58.40
2022-10-14T10:27:42.886Z,58.30
2022-10-14T10:28:58.099Z,58.40
2022-10-14T10:30:27.268Z,58.30
2022-10-14T10:31:50.178Z,58.40
2022-10-14T10:33:41.478Z,58.40
2022-10-14T10:35:31.266Z,58.40
2022-10-14T10:37:22.538Z,58.50
2022-10-14T10:39:57.780Z,58.40
2022-10-14T10:41:26.329Z,58.50
2022-10-14T10:43:14.812Z,58.50
2022-10-14T10:44:55.209Z,58.50
2022-10-14T10:46:25.280Z,58.50
2022-10-14T10:48:08.146Z,58.50
2022-10-14T10:49:42.064Z,58.60
2022-10-14T10:51:34.810Z,58.50
2022-10-14T10:53:06.720Z,58.60
2022-10-14T10:55:32.883Z,58.60
2022-10-14T10:57:07.200Z,58.60
2022-10-14T10:58:34.392Z,58.60
2022-10-14T11:00:16.416Z,58.60
2022-10-14T11:02:12.086Z,58.60
2022-10-14T11:03:55.397Z,58.70
2022-10-14T11:05:10.509Z,58.60
2022-10-14T11:07:11.606Z,58.70
2022-10-14T11:09:05.346Z,58.70
2022-10-14T11:11:14.111Z,58.70
2022-10-14T11:12:39.442Z,58.70
2022-10-14T11:15:03.996Z,58.70
2022-10-14T11:16:18.047Z,58.70
2022-10-14T11:18:04.615Z,58.80
2022-10-14T11:19:37.867Z,58.80
2022-10-14T11:21:33.448Z,58.80
2022-10-14T11:23:20.083Z,58.90
2022-10-14T11:25:03.069Z,58.90
2022-10-14T11:26:26.813Z,58.90
2022-10-14T11:29:10.708Z,58.90
2022-10-14T11:30:44.359Z,58.90
2022-10-14T11:32:11.223Z,58.90
2022-10-14T11:33:49.705Z,58.90
2022-10-14T11:36:37.168Z,59.00
2022-10-14T11:38:32.559Z,59.00
2022-10-14T11:39:56.697Z,59.00
2022-10-14T11:42:17.339Z,58.90
2022-10-14T11:43:55.459Z,59.10
2022-10-14T11:45:46.635Z,59.00
2022-10-14T11:47:16.134Z,59.00
2022-10-14T11:48:40.725Z,58.90
2022-10-14T11:50:17.403Z,59.00
2022-10-14T11:51:52.632Z,59.00
2022-10-14T11:53:42.213Z,59.00
2022-10-14T11:55:35.804Z,59.70
2022-10-14T11:57:44.433Z,59.20
2022-10-14T11:59:59.999Z,59.10
2022-10-14T12:02:47.226Z,59.10
2022-10-14T12:04:12.779Z,59.30
2022-10-14T12:05:49.008Z,59.20
2022-10-14T12:07:11.726Z,59.30
2022-10-14T12:09:07.027Z,59.30
2022-10-14T12:10:59.200Z,59.30
2022-10-14T12:12:38.114Z,59.30
2022-10-14T12:14:09.495Z,59.30
2022-10-14T12:15:32.163Z,59.30
2022-10-14T12:17:07.238Z,59.30
2022-10-14T12:18:20.148Z,59.40
2022-10-14T12:19:38.915Z,59.40
2022-10-14T12:21:15.779Z,59.30
2022-10-14T12:22:35.602Z,59.30
2022-10-14T12:24:10.637Z,59.30
2022-10-14T12:27:57.898Z,59.40
2022-10-14T12:29:59.785Z,59.40
2022-10-14T12:31:32.040Z,59.40
2022-10-14T12:33:11.626Z,59.50
2022-10-14T12:34:56.972Z,59.60
2022-10-14T12:36:31.349Z,59.60
2022-10-14T12:37:54.484Z,59.60
2022-10-14T12:39:17.021Z,60.10
2022-10-14T12:40:31.768Z,59.60
2022-10-14T12:42:02.180Z,59.60
2022-10-14T12:43:21.573Z,59.60
2022-10-14T12:45:04.982Z,59.60
2022-10-14T12:46:30.425Z,59.60
2022-10-14T12:50:22.786Z,59.60
2022-10-14T12:52:03.043Z,59.60
2022-10-14T12:53:32.013Z,59.60
2022-10-14T12:54:48.501Z,59.60
2022-10-14T12:56:38.610Z,59.60
2022-10-14T12:58:04.726Z,59.70
2022-10-14T12:59:40.761Z,59.60
2022-10-14T13:01:18.997Z,59.60
2022-10-14T13:02:40.389Z,59.60
2022-10-14T13:05:35.024Z,59.60
2022-10-14T13:07:35.669Z,59.70
2022-10-14T13:09:20.935Z,59.70
2022-10-14T13:10:48.087Z,59.70
2022-10-14T13:12:16.892Z,59.70
2022-10-14T13:13:54.042Z,59.70
2022-10-14T13:15:38.334Z,59.70
2022-10-14T13:17:01.322Z,59.70
2022-10-14T13:18:43.269Z,59.80
2022-10-14T13:20:00.590Z,59.80
2022-10-14T13:21:42.034Z,59.80
2022-10-14T13:23:47.347Z,59.80
2022-10-14T13:25:19.239Z,59.80
2022-10-14T13:26:54.843Z,59.70
2022-10-14T13:28:29.967Z,59.80
2022-10-14T13:30:09.267Z,59.70
2022-10-14T13:31:55.382Z,59.70
2022-10-14T13:33:57.762Z,59.70
2022-10-14T13:35:42.510Z,59.80
2022-10-14T13:37:16.921Z,59.80
2022-10-14T13:38:35.535Z,59.80
2022-10-14T13:39:55.180Z,59.80
2022-10-14T13:41:28.310Z,59.70
2022-10-14T13:42:59.898Z,59.80
2022-10-14T13:44:26.504Z,59.80
2022-10-14T13:45:45.396Z,59.80
2022-10-14T13:47:00.710Z,59.80
2022-10-14T13:48:21.035Z,60.30
2022-10-14T13:49:42.348Z,59.80
2022-10-14T13:51:35.168Z,59.90
2022-10-14T13:54:48.382Z,59.90
2022-10-14T13:56:19.785Z,59.90
2022-10-14T13:58:12.072Z,59.90
2022-10-14T13:59:46.876Z,59.80
2022-10-14T14:01:14.051Z,59.80
2022-10-14T14:02:32.441Z,59.90
2022-10-14T14:03:56.187Z,59.90
2022-10-14T14:05:17.349Z,59.90
2022-10-14T14:06:45.272Z,59.90
2022-10-14T14:10:08.912Z,59.90
2022-10-14T14:11:43.215Z,59.90
2022-10-14T14:13:07.336Z,60.00
2022-10-14T14:14:46.778Z,60.00
2022-10-14T14:16:06.144Z,59.90
2022-10-14T14:17:31.530Z,60.50
2022-10-14T14:19:04.261Z,60.40
2022-10-14T14:20:33.846Z,60.00
2022-10-14T14:21:53.135Z,60.00
2022-10-14T14:23:12.765Z,60.00
2022-10-14T14:24:29.633Z,60.00
2022-10-14T14:26:18.011Z,60.00
2022-10-14T14:27:27.466Z,60.00
2022-10-14T14:28:47.406Z,60.00
2022-10-14T14:30:00.406Z,60.00
2022-10-14T14:31:20.638Z,60.10
2022-10-14T14:43:03.809Z,60.10
2022-10-14T14:44:31.422Z,60.10
2022-10-14T14:45:50.734Z,60.10
2022-10-14T14:47:16.123Z,60.10
2022-10-14T14:48:48.820Z,60.20
2022-10-14T14:50:29.965Z,60.20
2022-10-14T14:51:50.503Z,60.10
2022-10-14T14:53:22.318Z,60.20
2022-10-14T14:54:45.747Z,60.20
2022-10-14T14:56:13.516Z,60.30
2022-10-14T14:57:44.393Z,60.20
2022-10-14T14:59:21.763Z,60.30
2022-10-14T15:00:42.426Z,60.30
2022-10-14T15:02:06.679Z,60.20
2022-10-14T15:03:25.154Z,60.30
2022-10-14T15:04:44.326Z,60.30
2022-10-14T15:06:12.435Z,60.30
2022-10-14T15:07:33.922Z,60.20
2022-10-14T15:08:51.735Z,60.20
2022-10-14T15:10:08.900Z,60.20
2022-10-14T15:11:24.110Z,60.30
2022-10-14T15:12:41.901Z,60.30
2022-10-14T15:14:00.195Z,60.40
2022-10-14T15:15:34.314Z,60.50
2022-10-14T15:18:24.404Z,60.40
2022-10-14T15:19:38.761Z,60.50
2022-10-14T15:21:19.711Z,60.50
2022-10-14T15:22:44.534Z,60.40
2022-10-14T15:25:58.234Z,60.40
2022-10-14T15:27:36.599Z,60.50
2022-10-14T15:29:27.062Z,60.50
2022-10-14T15:30:48.292Z,60.60
2022-10-14T15:32:33.295Z,60.50
2022-10-14T15:33:51.714Z,60.50
2022-10-14T15:35:14.117Z,60.50
2022-10-14T15:36:33.876Z,60.60
2022-10-14T15:37:51.172Z,60.60
2022-10-14T15:40:12.114Z,60.80
2022-10-14T15:41:29.194Z,60.80
2022-10-14T15:42:59.536Z,60.70
2022-10-14T15:44:18.211Z,60.60
2022-10-14T15:45:41.063Z,60.60
2022-10-14T15:47:23.427Z,60.70
2022-10-14T15:48:57.379Z,60.70
2022-10-14T15:50:24.215Z,60.70
2022-10-14T15:51:58.643Z,60.70
2022-10-14T15:53:17.489Z,60.70
2022-10-14T15:54:36.718Z,60.80
2022-10-14T15:55:55.663Z,60.80
2022-10-14T15:57:29.847Z,60.80
2022-10-14T15:58:43.742Z,60.70
2022-10-14T16:00:15.244Z,60.70
2022-10-14T16:02:09.770Z,60.80
2022-10-14T16:03:41.079Z,60.80
2022-10-14T16:06:34.930Z,60.80
2022-10-14T16:07:48.810Z,60.80
2022-10-14T16:09:04.036Z,60.90
2022-10-14T16:12:37.111Z,60.90
2022-10-14T16:13:51.805Z,60.90
2022-10-14T16:25:58.318Z,61.00
2022-10-14T16:27:20.581Z,61.10
2022-10-14T16:28:40.961Z,61.10
2022-10-14T16:29:57.217Z,61.10
2022-10-14T16:32:51.233Z,61.10
2022-10-14T16:34:06.567Z,61.00
2022-10-14T16:35:20.041Z,61.00
2022-10-14T16:36:38.387Z,61.10
2022-10-14T16:38:09.648Z,61.10
2022-10-14T16:39:25.776Z,61.10
2022-10-14T16:40:42.472Z,61.10
2022-10-14T16:41:56.148Z,61.20
2022-10-14T16:43:12.741Z,61.20
2022-10-14T16:44:42.791Z,61.20
2022-10-14T16:46:09.328Z,61.20
2022-10-14T16:47:29.138Z,61.20
2022-10-14T16:48:43.124Z,61.20
2022-10-14T16:49:58.043Z,61.20
2022-10-14T16:51:30.327Z,61.30
2022-10-14T16:55:26.490Z,61.30
2022-10-14T16:56:56.782Z,61.20
2022-10-14T16:58:12.566Z,61.30
2022-10-14T16:59:39.457Z,61.30
2022-10-14T17:01:12.473Z,61.30
2022-10-14T17:02:31.853Z,61.30
2022-10-14T17:03:45.596Z,61.30
2022-10-14T17:04:59.737Z,61.20
2022-10-14T17:06:23.238Z,61.30
2022-10-14T17:07:41.503Z,61.30
2022-10-14T17:09:01.226Z,61.30
2022-10-14T17:10:16.115Z,61.20
2022-10-14T17:11:34.328Z,61.30
2022-10-14T17:12:48.643Z,61.30
2022-10-14T17:14:01.906Z,61.30
2022-10-14T17:15:17.059Z,61.30
2022-10-14T17:16:37.255Z,61.30
2022-10-14T17:17:56.694Z,61.30
2022-10-14T17:19:11.464Z,61.30
2022-10-14T17:20:26.488Z,61.40
2022-10-14T17:22:04.198Z,61.30
2022-10-14T17:34:02.519Z,61.30
2022-10-14T17:36:28.936Z,61.50
2022-10-14T17:38:07.290Z,61.50
2022-10-14T17:39:29.255Z,61.40
2022-10-14T17:41:02.078Z,61.50
2022-10-14T17:52:59.155Z,61.40
2022-10-14T17:54:14.709Z,61.50
2022-10-14T17:55:28.283Z,61.60
2022-10-14T17:56:47.655Z,61.50
2022-10-14T17:58:09.995Z,61.50
2022-10-14T17:59:27.694Z,61.60
2022-10-14T18:02:57.275Z,61.60
2022-10-14T18:05:15.645Z,61.60
2022-10-14T18:08:38.829Z,61.60
2022-10-14T18:10:05.502Z,61.60
2022-10-14T18:12:09.267Z,61.60
2022-10-14T18:13:23.236Z,61.60
2022-10-14T18:14:37.184Z,61.60
2022-10-14T18:16:18.454Z,61.60
2022-10-14T18:18:09.608Z,61.60
2022-10-14T18:19:26.328Z,62.10
2022-10-14T18:20:41.367Z,61.60
2022-10-14T18:22:08.761Z,61.60
2022-10-14T18:23:27.579Z,61.60
2022-10-14T18:24:53.175Z,61.60
2022-10-14T18:26:16.669Z,61.60
2022-10-14T18:28:14.194Z,61.60
2022-10-14T18:29:30.930Z,61.60
2022-10-14T18:30:47.315Z,61.60
2022-10-14T18:32:01.171Z,62.10
2022-10-14T18:33:19.102Z,61.50
2022-10-14T18:34:47.854Z,61.60
2022-10-14T18:36:39.441Z,61.70
2022-10-14T18:37:54.281Z,61.60
2022-10-14T18:39:11.811Z,61.60
2022-10-14T18:40:38.830Z,61.60
2022-10-14T18:42:01.978Z,61.60
2022-10-14T18:43:18.069Z,61.60
2022-10-14T18:44:31.273Z,61.60
2022-10-14T18:45:47.599Z,61.60
2022-10-14T18:47:04.889Z,61.60
2022-10-14T18:48:31.308Z,61.60
2022-10-14T18:49:52.777Z,61.70
2022-10-14T18:51:08.008Z,61.60
2022-10-14T18:52:25.675Z,61.60
2022-10-14T18:55:11.491Z,61.60
2022-10-14T18:56:27.470Z,61.60
2022-10-14T18:57:46.088Z,61.60
2022-10-14T18:59:12.771Z,61.60
2022-10-14T19:00:27.850Z,61.60
2022-10-14T19:02:09.863Z,61.50
2022-10-14T19:04:26.930Z,61.60
2022-10-14T19:06:00.327Z,61.60
2022-10-14T19:07:27.347Z,61.60
2022-10-14T19:08:47.545Z,61.60
2022-10-14T19:10:01.093Z,62.10
2022-10-14T19:11:21.300Z,61.50
2022-10-14T19:12:43.421Z,61.60
2022-10-14T19:14:04.174Z,61.50
2022-10-14T19:15:18.798Z,61.50
2022-10-14T19:16:40.534Z,61.60
2022-10-14T19:18:13.622Z,61.50
2022-10-14T19:19:45.242Z,61.50
2022-10-14T19:21:05.473Z,61.50
2022-10-14T19:22:58.537Z,61.50
2022-10-14T19:25:12.855Z,61.50
2022-10-14T19:26:38.619Z,61.50
2022-10-14T19:27:59.554Z,61.50
2022-10-14T19:29:20.067Z,61.50
2022-10-14T19:30:38.007Z,61.50
2022-10-14T19:31:57.279Z,61.40
2022-10-14T19:33:37.877Z,61.40
2022-10-14T19:35:21.527Z,61.40
2022-10-14T19:36:57.867Z,61.40
2022-10-14T19:39:08.131Z,61.50
2022-10-14T19:41:02.146Z,61.40
2022-10-14T19:42:16.614Z,61.40
2022-10-14T19:43:43.990Z,61.40
2022-10-14T19:44:57.889Z,61.40
2022-10-14T19:46:29.474Z,61.40
2022-10-14T19:48:45.366Z,61.40
2022-10-14T19:50:09.830Z,61.40
2022-10-14T19:51:35.785Z,61.40
2022-10-14T19:53:09.547Z,61.40
2022-10-14T19:54:38.040Z,61.40
2022-10-14T19:56:12.381Z,61.40
2022-10-14T19:57:43.455Z,61.30
2022-10-14T19:58:58.606Z,61.40
2022-10-14T20:00:15.991Z,61.40
2022-10-14T20:01:30.618Z,61.30
2022-10-14T20:02:45.691Z,61.30
2022-10-14T20:04:07.196Z,61.30
2022-10-14T20:05:22.695Z,61.40
2022-10-14T20:06:47.191Z,61.90
2022-10-14T20:08:10.596Z,61.30
2022-10-14T20:09:25.177Z,61.30
2022-10-14T20:10:39.399Z,61.30
2022-10-14T20:11:54.533Z,61.30
2022-10-14T20:13:08.573Z,61.30
2022-10-14T20:14:30.349Z,61.30
2022-10-14T20:15:59.080Z,61.30
2022-10-14T20:17:16.306Z,61.30
2022-10-14T20:18:32.113Z,61.30
2022-10-14T20:19:44.787Z,61.30
2022-10-14T20:21:02.664Z,61.30
2022-10-14T20:22:40.939Z,61.30
2022-10-14T20:23:59.281Z,61.30
2022-10-14T20:25:14.462Z,61.30
2022-10-14T20:26:34.107Z,61.30
2022-10-14T20:28:26.754Z,61.20
2022-10-14T20:29:58.525Z,61.30
2022-10-14T20:31:25.407Z,61.30
2022-10-14T20:32:40.839Z,61.30
2022-10-14T20:34:03.478Z,61.30
2022-10-14T20:35:23.962Z,61.30
2022-10-14T20:36:47.679Z,61.30
2022-10-14T20:38:05.185Z,61.20
2022-10-14T20:39:35.326Z,61.30
2022-10-14T20:41:22.965Z,61.20
2022-10-14T20:43:24.827Z,61.20
2022-10-14T20:44:41.861Z,61.20
2022-10-14T20:46:59.613Z,61.20
2022-10-14T20:48:39.366Z,61.20
2022-10-14T20:49:52.932Z,61.20
2022-10-14T20:51:20.849Z,61.20
2022-10-14T20:52:51.376Z,61.20
2022-10-14T20:54:10.936Z,61.30
2022-10-14T20:55:31.079Z,61.20
2022-10-14T20:56:54.689Z,61.20
2022-10-14T20:58:08.295Z,61.10
2022-10-14T20:59:22.873Z,61.20
2022-10-14T21:00:40.174Z,61.20
2022-10-14T21:02:06.215Z,61.20
2022-10-14T21:03:23.045Z,61.10
2022-10-14T21:04:59.526Z,61.20
2022-10-14T21:07:14.960Z,61.20